Time;durP1;ratioP1;P1;durP2;ratioP2;P2;SDS_P1;SDS_P2;PMS_P1;PMS_P2;Temp;Humidity;BMP_temperature;BMP_pressure;BME280_temperature;BME280_humidity;BME280_pressure;Samples;Min_cycle;Max_cycle;Signal;HPM_P1;HPM_P2
2023/07/04 00:05:57;;;;;;;9.63;3.15;;;17.90;99.90;;;;;;5037229;28;20190;-80
2023/07/04 00:08:27;;;;;;;5.97;3.00;;;17.80;99.90;;;;;;5032562;28;20203;-80
2023/07/04 00:10:58;;;;;;;7.88;2.42;;;17.80;99.90;;;;;;5024086;28;20199;-80
2023/07/04 00:13:25;;;;;;;7.78;2.80;;;17.70;99.90;;;;;;5016405;28;20241;-80
2023/07/04 00:15:54;;;;;;;5.50;2.90;;;17.70;99.90;;;;;;5032283;28;20695;-80
2023/07/04 00:18:24;;;;;;;5.47;2.70;;;17.70;99.90;;;;;;5032998;28;20199;-80
2023/07/04 00:21:21;;;;;;;10.60;3.50;;;17.70;99.90;;;;;;5031213;28;20195;-80
2023/07/04 00:23:52;;;;;;;7.03;2.97;;;17.70;99.90;;;;;;5032518;28;20211;-80
2023/07/04 00:26:21;;;;;;;12.70;3.00;;;17.60;99.90;;;;;;5047124;28;20209;-80
2023/07/04 00:28:49;;;;;;;8.38;2.95;;;17.50;99.90;;;;;;5033206;28;20214;-80
2023/07/04 00:31:18;;;;;;;8.32;2.95;;;17.50;99.90;;;;;;5014358;28;20576;-80
2023/07/04 00:33:46;;;;;;;7.45;2.83;;;17.30;99.90;;;;;;5007841;28;20228;-80
2023/07/04 00:36:16;;;;;;;7.60;3.25;;;17.30;99.90;;;;;;5015293;28;20207;-80
2023/07/04 00:38:45;;;;;;;5.13;2.70;;;17.20;99.90;;;;;;5032477;28;20194;-80
2023/07/04 00:41:20;;;;;;;7.35;2.72;;;17.20;99.90;;;;;;5030965;28;20703;-80
2023/07/04 00:43:57;;;;;;;4.80;2.58;;;17.20;99.90;;;;;;5016821;28;20207;-80
2023/07/04 00:46:37;;;;;;;5.95;2.67;;;17.20;99.90;;;;;;5019217;28;20245;-80
2023/07/04 00:49:07;;;;;;;6.10;2.70;;;17.30;99.90;;;;;;5040270;28;20238;-80
2023/07/04 00:51:45;;;;;;;7.53;2.95;;;17.30;99.90;;;;;;5020265;28;20207;-80
2023/07/04 00:54:14;;;;;;;8.95;2.63;;;17.30;99.90;;;;;;5015832;28;20594;-80
2023/07/04 00:56:43;;;;;;;10.05;3.08;;;17.40;99.90;;;;;;5025349;28;20672;-80
2023/07/04 00:59:10;;;;;;;7.05;2.88;;;17.30;99.90;;;;;;5020729;28;20203;-79
2023/07/04 01:01:37;;;;;;;7.78;2.85;;;17.30;99.90;;;;;;5027796;28;20198;-79
2023/07/04 01:04:05;;;;;;;7.15;3.10;;;17.20;99.90;;;;;;5027666;28;20227;-80
2023/07/04 01:06:39;;;;;;;9.57;3.45;;;17.30;99.90;;;;;;5021881;28;20208;-80
2023/07/04 01:09:08;;;;;;;10.43;3.70;;;17.30;99.90;;;;;;5017144;28;20205;-80
2023/07/04 01:11:42;;;;;;;9.60;3.70;;;17.30;99.90;;;;;;5014457;28;20202;-80
2023/07/04 01:14:24;;;;;;;7.85;2.85;;;17.20;99.90;;;;;;5013741;28;20237;-80
2023/07/04 01:16:52;;;;;;;10.68;3.35;;;17.10;99.90;;;;;;5018010;28;20204;-80
2023/07/04 01:19:27;;;;;;;9.40;3.20;;;17.10;99.90;;;;;;5028929;28;20202;-80
2023/07/04 01:22:05;;;;;;;7.75;3.08;;;17.00;99.90;;;;;;5010442;28;20215;-79
2023/07/04 01:27:59;;;;;;;7.40;3.70;;;17.00;99.90;;;;;;5027333;28;20202;-80
2023/07/04 01:30:30;;;;;;;9.90;3.30;;;17.00;99.90;;;;;;5011281;28;20516;-80
2023/07/04 01:32:59;;;;;;;6.65;3.10;;;17.00;99.90;;;;;;5011095;28;20281;-80
2023/07/04 01:35:28;;;;;;;8.48;2.78;;;16.90;99.90;;;;;;5010013;28;20231;-80
2023/07/04 01:37:55;;;;;;;7.90;3.33;;;16.90;99.90;;;;;;5027172;28;20214;-80
2023/07/04 01:40:24;;;;;;;11.65;3.10;;;16.80;99.90;;;;;;5013624;28;20203;-80
2023/07/04 01:42:53;;;;;;;7.93;3.38;;;16.80;99.90;;;;;;5022721;28;20226;-78
2023/07/04 01:45:21;;;;;;;7.85;3.10;;;16.90;99.90;;;;;;5025516;28;20196;-78
2023/07/04 01:47:49;;;;;;;7.93;3.38;;;16.80;99.90;;;;;;5027359;28;20206;-78
2023/07/04 01:50:18;;;;;;;12.20;3.70;;;16.80;99.90;;;;;;5017675;28;20196;-78
2023/07/04 01:52:47;;;;;;;6.15;3.13;;;16.80;99.90;;;;;;5020368;28;20226;-77
2023/07/04 01:55:15;;;;;;;8.32;2.72;;;16.70;99.90;;;;;;5027645;28;20218;-78
2023/07/04 01:57:43;;;;;;;7.57;3.00;;;16.70;99.90;;;;;;5011129;28;20199;-78
2023/07/04 02:00:14;;;;;;;9.82;3.58;;;16.70;99.90;;;;;;5009194;28;20191;-79
2023/07/04 02:03:01;;;;;;;8.13;3.25;;;16.70;99.90;;;;;;5031553;28;20210;-78
2023/07/04 02:05:29;;;;;;;10.95;3.50;;;16.60;99.90;;;;;;5028860;28;20194;-78
2023/07/04 02:07:57;;;;;;;12.70;3.30;;;16.60;99.90;;;;;;5017391;28;20207;-78
2023/07/04 02:10:26;;;;;;;7.07;3.00;;;16.50;99.90;;;;;;5010071;28;20564;-78
2023/07/04 02:12:53;;;;;;;7.72;2.95;;;16.50;99.90;;;;;;5013892;28;20219;-78
2023/07/04 02:15:24;;;;;;;9.70;3.42;;;16.50;99.90;;;;;;5012308;28;20222;-78
2023/07/04 02:17:51;;;;;;;7.25;3.88;;;16.40;99.90;;;;;;5028104;28;20206;-78
2023/07/04 02:20:44;;;;;;;10.15;3.78;;;16.30;99.90;;;;;;5026659;28;20191;-78
2023/07/04 02:23:11;;;;;;;7.35;3.00;;;16.40;99.90;;;;;;5013840;28;20219;-77
2023/07/04 02:25:41;;;;;;;11.30;4.15;;;16.30;99.90;;;;;;5010104;28;20207;-78
2023/07/04 02:28:09;;;;;;;10.95;3.65;;;16.30;99.90;;;;;;5032057;28;20196;-78
2023/07/04 02:30:42;;;;;;;9.15;3.58;;;16.20;99.90;;;;;;5010151;28;20187;-78
2023/07/04 02:33:10;;;;;;;10.32;3.47;;;16.20;99.90;;;;;;5025164;28;20226;-78
2023/07/04 02:35:39;;;;;;;11.07;3.45;;;16.10;99.90;;;;;;5014498;28;20215;-78
2023/07/04 02:38:07;;;;;;;8.05;3.58;;;16.10;99.90;;;;;;5006116;28;20195;-78
2023/07/04 02:40:34;;;;;;;9.88;3.50;;;16.10;99.90;;;;;;5014195;28;20195;-78
2023/07/04 02:43:02;;;;;;;10.32;3.60;;;16.10;99.90;;;;;;5013798;28;20587;-78
2023/07/04 02:45:29;;;;;;;9.85;3.40;;;16.00;99.90;;;;;;5030832;28;20214;-78
2023/07/04 02:48:18;;;;;;;9.55;3.72;;;16.00;99.90;;;;;;5016629;28;20210;-80
2023/07/04 02:50:46;;;;;;;10.30;3.42;;;16.00;99.90;;;;;;5007303;28;20204;-78
2023/07/04 02:53:20;;;;;;;14.13;4.25;;;16.00;99.90;;;;;;5017955;28;20234;-79
2023/07/04 02:55:47;;;;;;;11.65;4.15;;;15.90;99.90;;;;;;5034165;28;20207;-78
2023/07/04 02:58:15;;;;;;;13.65;3.55;;;15.90;99.90;;;;;;5012934;28;20199;-78
2023/07/04 03:00:43;;;;;;;13.45;4.18;;;15.90;99.90;;;;;;5016461;28;20191;-77
2023/07/04 03:03:10;;;;;;;9.02;3.70;;;16.00;99.90;;;;;;5007242;28;21808;-78
2023/07/04 03:05:39;;;;;;;14.63;4.40;;;15.90;99.90;;;;;;5018572;28;20183;-79
2023/07/04 03:08:08;;;;;;;11.77;4.38;;;16.00;99.90;;;;;;5019713;28;20198;-78
2023/07/04 03:10:46;;;;;;;6.78;3.80;;;15.80;99.90;;;;;;5017172;28;20653;-78
2023/07/04 03:13:14;;;;;;;9.43;3.50;;;15.80;99.90;;;;;;5031875;28;20676;-77
2023/07/04 03:15:42;;;;;;;13.38;4.45;;;15.90;99.90;;;;;;5016487;28;20223;-77
2023/07/04 03:18:11;;;;;;;11.07;4.15;;;15.90;99.90;;;;;;5032778;28;20195;-78
2023/07/04 03:20:41;;;;;;;7.57;3.60;;;15.80;99.90;;;;;;5032754;28;20205;-78
2023/07/04 03:23:09;;;;;;;10.10;4.45;;;15.70;99.90;;;;;;5023868;28;20574;-77
2023/07/04 03:25:38;;;;;;;7.32;3.38;;;15.70;99.90;;;;;;5016744;28;20203;-78
2023/07/04 03:28:05;;;;;;;10.77;3.78;;;15.80;99.90;;;;;;5024505;28;20200;-77
2023/07/04 03:30:35;;;;;;;13.65;4.25;;;15.70;99.90;;;;;;5014826;28;20195;-78
2023/07/04 03:33:08;;;;;;;9.63;3.47;;;15.70;99.90;;;;;;5032672;28;20230;-77
2023/07/04 03:35:38;;;;;;;10.95;3.78;;;15.80;99.90;;;;;;5015916;28;20210;-78
2023/07/04 03:38:07;;;;;;;10.32;3.70;;;15.80;99.90;;;;;;5009867;28;20199;-78
2023/07/04 03:40:34;;;;;;;8.80;3.60;;;15.80;99.90;;;;;;5016836;28;20537;-77
2023/07/04 03:43:02;;;;;;;7.70;3.47;;;15.70;99.90;;;;;;5032702;28;20231;-78
2023/07/04 03:45:29;;;;;;;11.95;3.80;;;15.70;99.90;;;;;;5016384;28;20198;-78
2023/07/04 03:47:56;;;;;;;12.77;4.05;;;15.60;99.90;;;;;;5032598;28;20191;-77
2023/07/04 03:50:24;;;;;;;9.43;3.60;;;15.60;99.90;;;;;;5016142;28;20210;-78
2023/07/04 03:52:51;;;;;;;8.30;3.75;;;15.60;99.90;;;;;;5033940;28;20214;-78
2023/07/04 03:55:20;;;;;;;11.70;3.60;;;15.70;99.90;;;;;;5031016;28;20599;-77
2023/07/04 03:57:48;;;;;;;14.60;3.70;;;15.60;99.90;;;;;;5032997;28;20664;-78
2023/07/04 04:00:16;;;;;;;8.85;4.35;;;15.50;99.90;;;;;;5017517;28;20204;-78
2023/07/04 04:03:00;;;;;;;11.30;3.92;;;15.60;99.90;;;;;;5031538;28;20219;-78
2023/07/04 04:05:29;;;;;;;10.70;3.88;;;15.60;99.90;;;;;;5015303;28;20830;-77
2023/07/04 04:07:57;;;;;;;10.85;3.30;;;15.60;99.90;;;;;;5032380;28;20203;-77
2023/07/04 04:10:33;;;;;;;9.88;3.45;;;15.60;99.90;;;;;;5008456;28;20206;-78
2023/07/04 04:13:00;;;;;;;12.15;3.70;;;15.60;99.90;;;;;;5010379;28;20223;-80
2023/07/04 04:15:28;;;;;;;10.75;3.65;;;15.60;99.90;;;;;;5013100;28;20223;-79
2023/07/04 04:17:55;;;;;;;11.00;4.05;;;15.50;99.90;;;;;;5029865;28;20194;-79
2023/07/04 04:20:23;;;;;;;9.45;4.10;;;15.50;99.90;;;;;;5025156;28;20203;-79
2023/07/04 04:22:52;;;;;;;8.35;3.80;;;15.50;99.90;;;;;;5015975;28;20218;-80
2023/07/04 04:25:19;;;;;;;9.82;4.00;;;15.40;99.90;;;;;;5033800;28;20191;-79
2023/07/04 04:27:48;;;;;;;13.75;4.30;;;15.40;99.90;;;;;;5028788;28;20206;-79
2023/07/04 04:30:16;;;;;;;10.32;4.32;;;15.40;99.90;;;;;;5030971;28;20211;-79
2023/07/04 04:32:44;;;;;;;12.43;3.70;;;15.40;99.90;;;;;;5023532;28;20207;-79
2023/07/04 04:35:12;;;;;;;10.13;4.20;;;15.50;99.90;;;;;;5025699;28;20221;-80
2023/07/04 04:37:39;;;;;;;12.85;4.55;;;15.50;99.90;;;;;;5026116;28;20199;-80
2023/07/04 04:40:08;;;;;;;7.60;3.90;;;15.50;99.90;;;;;;5014933;28;20199;-79
2023/07/04 04:42:35;;;;;;;8.32;4.38;;;15.40;99.90;;;;;;5026461;28;20204;-80
2023/07/04 04:45:07;;;;;;;11.30;3.83;;;15.40;99.90;;;;;;5012091;28;20288;-80
2023/07/04 04:47:36;;;;;;;10.52;4.43;;;15.40;99.90;;;;;;4999636;28;20188;-80
2023/07/04 04:50:03;;;;;;;17.90;5.22;;;15.50;99.90;;;;;;5014822;28;20692;-77
2023/07/04 04:52:32;;;;;;;14.45;4.35;;;15.60;99.90;;;;;;5015109;28;20214;-77
2023/07/04 04:55:00;;;;;;;13.85;5.10;;;15.50;99.90;;;;;;5028026;28;20195;-78
2023/07/04 04:57:28;;;;;;;9.93;4.20;;;15.50;99.90;;;;;;5014694;28;20215;-77
2023/07/04 04:59:59;;;;;;;11.18;4.40;;;15.50;99.90;;;;;;5018260;28;20198;-78
2023/07/04 05:02:29;;;;;;;10.45;4.88;;;15.50;99.90;;;;;;5014735;28;20210;-78
2023/07/04 05:04:58;;;;;;;14.85;4.45;;;15.40;99.90;;;;;;5008589;28;20207;-77
2023/07/04 05:07:26;;;;;;;16.70;4.97;;;15.50;99.90;;;;;;5010401;28;20203;-77
2023/07/04 05:09:54;;;;;;;15.10;4.95;;;15.60;99.90;;;;;;5010350;28;20200;-77
2023/07/04 05:12:22;;;;;;;13.40;4.68;;;15.50;99.90;;;;;;5012082;28;20203;-78
2023/07/04 05:14:51;;;;;;;11.55;4.38;;;15.50;99.90;;;;;;5006634;28;20701;-77
2023/07/04 05:17:35;;;;;;;10.07;4.88;;;15.70;99.90;;;;;;5028791;28;20207;-77
2023/07/04 05:20:14;;;;;;;14.85;4.60;;;15.80;99.90;;;;;;5021727;28;20199;-81
2023/07/04 05:22:45;;;;;;;11.88;4.53;;;16.00;99.90;;;;;;5029376;28;20222;-80
2023/07/04 05:25:14;;;;;;;13.10;4.45;;;15.90;99.90;;;;;;5011851;28;20205;-80
2023/07/04 05:27:45;;;;;;;9.30;3.78;;;15.90;99.90;;;;;;5033518;28;20215;-81
2023/07/04 05:30:15;;;;;;;14.68;4.25;;;15.90;99.90;;;;;;5015031;28;20195;-80
2023/07/04 05:32:44;;;;;;;9.30;4.25;;;15.90;99.90;;;;;;5014794;28;20249;-80
2023/07/04 05:35:12;;;;;;;16.00;4.20;;;16.10;99.90;;;;;;5013515;28;20224;-82
2023/07/04 05:37:39;;;;;;;15.93;4.38;;;15.90;99.90;;;;;;5012819;28;20230;-80
2023/07/04 05:40:09;;;;;;;11.15;4.63;;;16.30;99.90;;;;;;5009135;28;20198;-80
2023/07/04 05:42:36;;;;;;;12.02;4.15;;;16.20;99.90;;;;;;5029712;28;20191;-81
2023/07/04 05:45:04;;;;;;;14.32;4.97;;;16.50;99.90;;;;;;5007596;28;20195;-79
2023/07/04 05:47:38;;;;;;;11.02;4.60;;;16.10;99.90;;;;;;5021923;28;20219;-80
2023/07/04 05:50:08;;;;;;;12.65;5.05;;;16.10;99.90;;;;;;5032117;28;20195;-80
2023/07/04 05:52:35;;;;;;;12.07;4.18;;;16.30;99.90;;;;;;5022815;28;20190;-80
2023/07/04 05:55:03;;;;;;;11.75;4.30;;;16.40;99.90;;;;;;5015714;28;20562;-80
2023/07/04 05:57:31;;;;;;;11.52;4.78;;;16.60;99.90;;;;;;5010082;28;20211;-81
2023/07/04 05:59:59;;;;;;;14.32;5.10;;;16.30;99.90;;;;;;5029803;28;20202;-82
2023/07/04 06:02:26;;;;;;;12.07;5.18;;;16.40;99.90;;;;;;5031075;28;20202;-82
2023/07/04 06:04:56;;;;;;;13.20;5.55;;;16.30;99.90;;;;;;5027941;28;20194;-82
2023/07/04 06:07:30;;;;;;;15.00;5.95;;;16.50;99.90;;;;;;5005172;28;20207;-80
2023/07/04 06:09:57;;;;;;;14.10;5.97;;;16.40;99.90;;;;;;5022719;28;20203;-81
2023/07/04 06:12:25;;;;;;;12.32;6.03;;;16.40;99.90;;;;;;5025989;28;20552;-80
2023/07/04 06:14:52;;;;;;;12.98;5.72;;;16.50;99.90;;;;;;5027272;28;20202;-80
2023/07/04 06:17:20;;;;;;;9.55;5.57;;;16.50;99.90;;;;;;5025174;28;20572;-80
2023/07/04 06:19:49;;;;;;;14.70;7.70;;;16.50;99.90;;;;;;5033726;28;20210;-81
2023/07/04 06:22:16;;;;;;;13.00;5.47;;;16.70;99.90;;;;;;5032065;28;20207;-80
2023/07/04 06:24:48;;;;;;;12.10;5.50;;;16.70;99.90;;;;;;5027295;28;20231;-82
2023/07/04 06:27:16;;;;;;;15.05;6.47;;;16.50;99.90;;;;;;5027332;28;20199;-81
2023/07/04 06:29:55;;;;;;;13.10;6.22;;;16.60;99.90;;;;;;5011175;28;20202;-82
2023/07/04 06:32:22;;;;;;;13.07;6.60;;;16.50;99.90;;;;;;5028928;28;20198;-80
2023/07/04 06:34:50;;;;;;;13.68;6.20;;;16.80;99.90;;;;;;5017064;28;20195;-82
2023/07/04 06:37:18;;;;;;;15.73;6.38;;;16.60;99.90;;;;;;5009113;28;20219;-81
2023/07/04 06:39:47;;;;;;;10.82;5.80;;;16.80;99.90;;;;;;5013887;28;20206;-80
2023/07/04 06:42:14;;;;;;;12.52;5.93;;;17.00;99.90;;;;;;5027640;28;20199;-80
2023/07/04 06:44:46;;;;;;;13.57;6.07;;;17.00;99.90;;;;;;5012076;28;20190;-79
2023/07/04 06:47:13;;;;;;;14.43;6.40;;;16.70;99.90;;;;;;5017602;28;20730;-79
2023/07/04 06:49:45;;;;;;;12.45;5.97;;;16.50;99.90;;;;;;5031389;28;20245;-79
2023/07/04 06:52:12;;;;;;;11.52;5.10;;;16.50;99.90;;;;;;5025100;28;20242;-78
2023/07/04 06:54:40;;;;;;;18.83;6.72;;;16.70;99.90;;;;;;5014817;28;20676;-79
2023/07/04 06:57:09;;;;;;;14.43;6.55;;;16.80;99.90;;;;;;5013789;28;20707;-79
2023/07/04 06:59:36;;;;;;;14.75;7.45;;;16.90;99.90;;;;;;5025658;28;20203;-79
2023/07/04 07:02:04;;;;;;;14.98;6.90;;;17.30;99.90;;;;;;5006445;28;20199;-79
2023/07/04 07:04:32;;;;;;;13.75;6.00;;;17.00;99.90;;;;;;5022920;28;20230;-79
2023/07/04 07:07:05;;;;;;;11.30;6.10;;;17.20;99.90;;;;;;5026328;28;20199;-80
2023/07/04 07:09:36;;;;;;;15.57;6.57;;;17.50;99.90;;;;;;5029164;28;20208;-79
2023/07/04 07:12:07;;;;;;;11.93;6.35;;;17.30;99.90;;;;;;5027422;28;20199;-78
2023/07/04 07:14:37;;;;;;;14.30;6.85;;;17.60;99.90;;;;;;5027712;28;20701;-78
2023/07/04 07:17:09;;;;;;;14.40;6.45;;;17.00;99.90;;;;;;5023938;28;20573;-78
2023/07/04 07:19:47;;;;;;;14.25;6.80;;;17.30;99.90;;;;;;5009408;28;20199;-79
2023/07/04 07:22:32;;;;;;;12.20;6.07;;;17.40;99.90;;;;;;5028842;28;20209;-79
2023/07/04 07:24:59;;;;;;;16.40;6.78;;;17.40;99.90;;;;;;5025363;28;20199;-79
2023/07/04 07:27:27;;;;;;;13.00;7.22;;;17.30;99.90;;;;;;5029057;28;20206;-79
2023/07/04 07:29:56;;;;;;;14.00;6.47;;;17.60;99.90;;;;;;5011693;28;20199;-79
2023/07/04 07:32:23;;;;;;;10.50;6.15;;;17.50;99.90;;;;;;5024052;28;20579;-78
2023/07/04 07:34:51;;;;;;;13.18;7.30;;;17.40;99.90;;;;;;5027127;28;20548;-80
2023/07/04 07:37:20;;;;;;;16.10;7.15;;;17.60;99.90;;;;;;5027935;28;20226;-76
2023/07/04 07:39:50;;;;;;;14.70;7.05;;;17.50;99.90;;;;;;5008581;28;20195;-79
2023/07/04 07:42:17;;;;;;;9.48;5.93;;;17.50;99.90;;;;;;5021645;28;20207;-80
2023/07/04 07:44:45;;;;;;;11.70;5.90;;;17.40;99.90;;;;;;5027354;28;20226;-78
2023/07/04 07:47:13;;;;;;;12.07;5.85;;;17.50;99.90;;;;;;5015696;28;20194;-79
2023/07/04 07:49:42;;;;;;;9.90;5.57;;;17.50;99.90;;;;;;5020035;28;20207;-77
2023/07/04 07:52:09;;;;;;;9.40;5.07;;;17.60;99.90;;;;;;5011826;28;20203;-77
2023/07/04 07:54:37;;;;;;;8.30;4.82;;;17.80;99.90;;;;;;5010839;28;20230;-78
2023/07/04 07:57:04;;;;;;;9.15;5.03;;;18.00;99.90;;;;;;5027511;28;20213;-78
2023/07/04 07:59:32;;;;;;;8.73;4.32;;;17.90;99.90;;;;;;5024278;28;20191;-78
2023/07/04 08:02:03;;;;;;;8.93;5.10;;;17.60;99.90;;;;;;5018757;28;20218;-78
2023/07/04 08:04:54;;;;;;;12.07;4.90;;;17.70;99.90;;;;;;5024712;28;20225;-78
2023/07/04 08:07:22;;;;;;;13.93;6.82;;;18.00;99.90;;;;;;5026898;28;20564;-78
2023/07/04 08:09:49;;;;;;;13.32;5.40;;;17.90;99.90;;;;;;5020671;28;20207;-77
2023/07/04 08:12:17;;;;;;;8.95;4.82;;;17.90;99.90;;;;;;5013032;28;20203;-78
2023/07/04 08:14:44;;;;;;;12.57;4.68;;;17.60;99.90;;;;;;5027727;28;20214;-78
2023/07/04 08:17:12;;;;;;;12.00;4.28;;;17.90;99.90;;;;;;5025960;28;20199;-78
2023/07/04 08:19:39;;;;;;;9.18;4.70;;;18.00;99.90;;;;;;5009142;28;20199;-77
2023/07/04 08:22:08;;;;;;;11.13;5.63;;;18.10;99.90;;;;;;5027975;28;20199;-78
2023/07/04 08:24:35;;;;;;;11.32;4.95;;;18.00;99.90;;;;;;5021845;28;20211;-77
2023/07/04 08:27:04;;;;;;;10.60;3.92;;;18.00;99.90;;;;;;5027093;28;20215;-80
2023/07/04 08:29:31;;;;;;;9.98;3.80;;;18.10;99.90;;;;;;5010943;28;20676;-80
2023/07/04 08:31:59;;;;;;;9.40;4.40;;;18.00;99.90;;;;;;5014409;28;20207;-77
2023/07/04 08:34:38;;;;;;;7.15;4.10;;;17.90;99.90;;;;;;5007653;28;20231;-81
2023/07/04 08:37:13;;;;;;;6.78;3.90;;;17.90;99.90;;;;;;5009790;28;20198;-77
2023/07/04 08:39:59;;;;;;;6.72;4.00;;;17.80;99.90;;;;;;5027988;28;20198;-79
2023/07/04 08:42:30;;;;;;;9.90;3.67;;;18.00;99.90;;;;;;5022042;28;20214;-77
2023/07/04 08:45:24;;;;;;;9.82;4.00;;;18.10;99.90;;;;;;5037174;28;20203;-79
2023/07/04 08:47:54;;;;;;;11.02;4.00;;;18.20;99.90;;;;;;5037875;28;20707;-81
2023/07/04 08:50:27;;;;;;;9.07;3.28;;;18.40;99.90;;;;;;5024538;28;20648;-78
2023/07/04 08:53:11;;;;;;;4.68;2.53;;;18.50;99.90;;;;;;5025461;28;20215;-81
2023/07/04 08:55:51;;;;;;;7.15;3.20;;;18.40;99.90;;;;;;5007987;28;20195;-78
2023/07/04 08:58:23;;;;;;;7.00;3.05;;;18.70;99.90;;;;;;5010658;28;20222;-79
2023/07/04 09:00:51;;;;;;;7.68;3.47;;;18.90;99.90;;;;;;5008519;28;20202;-80
2023/07/04 09:03:27;;;;;;;8.02;2.83;;;18.60;99.70;;;;;;5014553;28;20219;-80
2023/07/04 09:06:05;;;;;;;9.18;3.42;;;18.60;99.80;;;;;;5028958;28;20182;-79
2023/07/04 09:08:52;;;;;;;6.30;3.15;;;18.70;99.90;;;;;;5012899;28;20191;-81
2023/07/04 09:11:20;;;;;;;10.50;3.33;;;18.90;99.90;;;;;;5027339;28;20208;-79
2023/07/04 09:13:51;;;;;;;8.40;3.30;;;18.70;99.90;;;;;;5010086;28;20677;-79
2023/07/04 09:16:35;;;;;;;6.70;2.80;;;18.80;99.40;;;;;;5025477;28;20286;-80
2023/07/04 09:19:07;;;;;;;6.68;3.30;;;18.90;99.10;;;;;;5012805;28;20594;-80
2023/07/04 09:21:39;;;;;;;7.43;3.33;;;18.90;99.90;;;;;;5010483;28;20656;-81
2023/07/04 09:24:08;;;;;;;4.78;2.90;;;18.80;99.00;;;;;;5010865;28;20223;-79
2023/07/04 09:26:41;;;;;;;5.95;3.05;;;18.60;99.00;;;;;;5011621;28;20210;-79
2023/07/04 09:29:09;;;;;;;9.82;4.18;;;18.60;98.40;;;;;;5020307;28;20199;-79
2023/07/04 09:31:40;;;;;;;7.43;2.70;;;18.90;98.70;;;;;;5022113;28;20195;-79
2023/07/04 09:34:12;;;;;;;7.53;2.80;;;19.00;98.70;;;;;;5023137;28;20235;-80
2023/07/04 09:36:40;;;;;;;6.63;2.88;;;19.40;98.00;;;;;;5010738;28;20195;-80
2023/07/04 09:39:09;;;;;;;6.95;2.50;;;19.60;97.40;;;;;;5009740;28;20223;-79
2023/07/04 09:41:39;;;;;;;5.72;2.20;;;19.30;96.30;;;;;;5009262;28;20202;-79
2023/07/04 09:44:15;;;;;;;5.90;2.53;;;19.10;95.40;;;;;;5009325;28;20222;-79
2023/07/04 09:46:48;;;;;;;8.13;2.80;;;19.10;96.50;;;;;;5019179;28;20209;-79
2023/07/04 09:49:22;;;;;;;6.32;2.42;;;19.40;96.50;;;;;;5007978;28;20543;-80
2023/07/04 09:52:01;;;;;;;7.10;2.38;;;19.50;95.70;;;;;;5028821;28;20191;-81
2023/07/04 09:54:31;;;;;;;4.45;2.67;;;19.30;95.60;;;;;;5008069;28;20229;-80
2023/07/04 09:57:17;;;;;;;5.15;2.63;;;19.40;95.80;;;;;;5017722;28;20199;-80
2023/07/04 09:59:45;;;;;;;4.43;2.42;;;19.60;95.70;;;;;;5023692;28;20222;-83
2023/07/04 10:02:18;;;;;;;5.60;2.85;;;19.80;95.30;;;;;;5011293;28;20207;-80
2023/07/04 10:04:50;;;;;;;6.00;2.38;;;19.80;94.00;;;;;;5003486;28;20237;-80
2023/07/04 10:07:29;;;;;;;8.77;2.50;;;19.80;94.00;;;;;;5023933;28;20199;-80
2023/07/04 10:10:13;;;;;;;6.65;2.65;;;19.80;92.90;;;;;;5018791;28;20210;-79
2023/07/04 10:12:46;;;;;;;7.40;2.90;;;19.80;93.40;;;;;;5003781;28;20191;-79
2023/07/04 10:15:43;;;;;;;5.97;2.63;;;19.90;93.70;;;;;;5010710;28;20213;-79
2023/07/04 10:18:30;;;;;;;6.60;2.65;;;19.90;93.60;;;;;;5011199;28;20197;-79
2023/07/04 10:21:02;;;;;;;4.65;2.35;;;19.80;93.80;;;;;;5034772;28;20203;-79
2023/07/04 10:23:31;;;;;;;4.43;2.30;;;19.80;93.10;;;;;;5027053;28;20218;-79
2023/07/04 10:26:02;;;;;;;6.57;2.88;;;19.80;93.80;;;;;;5008467;28;20208;-79
2023/07/04 10:28:30;;;;;;;5.70;2.85;;;19.90;93.90;;;;;;5030074;28;20191;-79
2023/07/04 10:31:01;;;;;;;6.90;2.55;;;19.80;93.40;;;;;;5010537;28;20222;-79
2023/07/04 10:33:45;;;;;;;7.00;2.47;;;19.90;93.10;;;;;;5022598;28;20236;-79
2023/07/04 10:36:41;;;;;;;7.03;2.35;;;19.90;93.30;;;;;;5013777;28;20195;-79
2023/07/04 10:39:19;;;;;;;8.18;2.33;;;20.00;92.90;;;;;;5028018;28;20691;-79
2023/07/04 10:41:53;;;;;;;3.67;2.20;;;20.40;92.40;;;;;;5024726;28;20207;-80
2023/07/04 10:44:23;;;;;;;5.43;2.70;;;20.10;91.80;;;;;;5009728;28;20216;-79
2023/07/04 10:46:56;;;;;;;4.95;2.13;;;20.10;91.70;;;;;;5016800;28;20206;-78
2023/07/04 10:49:37;;;;;;;6.43;2.47;;;20.00;91.90;;;;;;5004999;28;20563;-78
2023/07/04 10:52:30;;;;;;;3.47;2.00;;;20.40;92.40;;;;;;5020340;28;20205;-78
2023/07/04 10:55:22;;;;;;;6.68;2.70;;;20.50;92.10;;;;;;5010738;28;20210;-78
2023/07/04 10:57:59;;;;;;;6.18;2.63;;;20.50;92.10;;;;;;5023498;28;20210;-77
2023/07/04 11:00:30;;;;;;;5.72;2.58;;;20.50;92.30;;;;;;5022336;28;20216;-79
2023/07/04 11:03:02;;;;;;;7.22;2.83;;;20.50;92.30;;;;;;5009964;28;20227;-82
2023/07/04 11:05:35;;;;;;;6.50;2.50;;;20.60;92.30;;;;;;5008729;28;20210;-80
2023/07/04 11:08:05;;;;;;;7.30;2.78;;;20.40;92.30;;;;;;5007804;28;20204;-79
2023/07/04 11:10:37;;;;;;;6.30;2.33;;;20.60;92.60;;;;;;5025422;28;20216;-79
2023/07/04 11:13:06;;;;;;;5.78;2.00;;;20.70;92.50;;;;;;5026334;28;20677;-79
2023/07/04 11:15:38;;;;;;;5.82;3.10;;;21.00;91.40;;;;;;5027869;28;20203;-81
2023/07/04 11:18:06;;;;;;;4.43;2.10;;;20.90;90.80;;;;;;5010589;28;20206;-79
2023/07/04 11:20:53;;;;;;;6.03;2.30;;;20.80;89.90;;;;;;5008291;28;20576;-81
2023/07/04 11:23:23;;;;;;;4.63;2.13;;;20.80;90.40;;;;;;5027963;28;20215;-79
2023/07/04 11:26:08;;;;;;;2.95;1.90;;;20.90;90.30;;;;;;5013584;28;20567;-79
2023/07/04 11:28:46;;;;;;;4.90;2.38;;;20.80;90.00;;;;;;5024047;28;20207;-81
2023/07/04 11:31:27;;;;;;;4.20;2.35;;;20.60;88.60;;;;;;5012971;28;20202;-79
2023/07/04 11:34:11;;;;;;;5.47;2.25;;;20.80;88.50;;;;;;5010429;28;20238;-79
2023/07/04 11:36:49;;;;;;;6.18;2.42;;;20.90;87.80;;;;;;5026548;28;20198;-78
2023/07/04 11:39:37;;;;;;;6.22;2.38;;;20.70;88.50;;;;;;5018504;28;20230;-77
2023/07/04 11:42:17;;;;;;;5.05;2.40;;;20.80;88.00;;;;;;5010966;28;20210;-78
2023/07/04 11:45:00;;;;;;;3.78;2.13;;;21.30;89.30;;;;;;5026676;28;20219;-81
2023/07/04 11:47:46;;;;;;;6.22;2.33;;;21.40;87.40;;;;;;5032070;28;20206;-78
2023/07/04 11:50:17;;;;;;;5.85;2.20;;;21.30;89.60;;;;;;5026069;28;20200;-78
2023/07/04 11:52:56;;;;;;;5.57;1.88;;;21.50;89.00;;;;;;5030291;28;20222;-78
2023/07/04 11:55:29;;;;;;;4.00;2.50;;;21.50;87.70;;;;;;5009727;28;20210;-78
2023/07/04 11:58:00;;;;;;;7.30;2.50;;;21.40;87.80;;;;;;5005763;28;20207;-78
2023/07/04 12:01:09;;;;;;;6.45;2.35;;;21.50;88.30;;;;;;5002960;28;20215;-80
2023/07/04 12:04:05;;;;;;;4.22;2.45;;;21.60;87.40;;;;;;5008694;28;20223;-78
2023/07/04 12:06:56;;;;;;;4.50;2.05;;;21.60;85.70;;;;;;5017612;28;20195;-79
2023/07/04 12:09:33;;;;;;;5.68;2.30;;;21.60;84.40;;;;;;5025864;28;20203;-78
2023/07/04 12:12:02;;;;;;;4.63;2.33;;;21.80;85.10;;;;;;5013588;28;20210;-80
2023/07/04 12:14:33;;;;;;;7.43;2.40;;;21.60;84.50;;;;;;5013768;28;20215;-80
2023/07/04 12:17:12;;;;;;;4.13;2.17;;;21.50;84.10;;;;;;5033108;28;20213;-80
2023/07/04 12:19:40;;;;;;;6.93;2.78;;;21.80;83.40;;;;;;5021786;28;20194;-78
2023/07/04 12:22:13;;;;;;;8.45;2.95;;;21.90;84.20;;;;;;4999537;28;20199;-78
2023/07/04 12:24:41;;;;;;;4.97;2.28;;;22.40;84.00;;;;;;5013125;28;20223;-78
2023/07/04 12:27:08;;;;;;;4.85;2.45;;;22.00;83.80;;;;;;5012856;28;20200;-78
2023/07/04 12:29:44;;;;;;;6.28;2.28;;;21.80;83.70;;;;;;5009527;28;20198;-78
2023/07/04 12:32:18;;;;;;;3.47;2.60;;;21.80;84.20;;;;;;5025047;28;20206;-79
2023/07/04 12:34:45;;;;;;;3.97;2.75;;;22.00;85.10;;;;;;4996121;28;20230;-78
2023/07/04 12:37:19;;;;;;;5.03;3.28;;;21.90;86.10;;;;;;5016690;28;20204;-80
2023/07/04 12:39:48;;;;;;;8.68;3.53;;;21.80;87.10;;;;;;5026771;28;20691;-80
2023/07/04 12:42:21;;;;;;;4.18;2.65;;;21.90;87.30;;;;;;5038447;28;20187;-80
2023/07/04 12:44:49;;;;;;;6.78;3.42;;;21.90;86.40;;;;;;5039148;28;20179;-80
2023/07/04 12:47:22;;;;;;;5.22;3.13;;;21.70;86.60;;;;;;5038807;28;20217;-80
2023/07/04 12:49:53;;;;;;;5.00;2.83;;;21.60;87.30;;;;;;5036203;28;20195;-79
2023/07/04 12:52:25;;;;;;;6.78;3.15;;;21.30;86.50;;;;;;5035326;28;20191;-79
2023/07/04 12:54:53;;;;;;;6.65;3.45;;;21.20;87.20;;;;;;5020477;28;20206;-80
2023/07/04 12:57:24;;;;;;;5.45;3.38;;;21.20;88.00;;;;;;5019646;28;20227;-80
2023/07/04 12:59:53;;;;;;;7.22;3.72;;;21.40;87.60;;;;;;5018443;28;20218;-80
2023/07/04 13:02:28;;;;;;;6.30;3.53;;;21.60;87.90;;;;;;5018399;28;20210;-79
2023/07/04 13:05:00;;;;;;;5.25;2.97;;;21.50;86.80;;;;;;5035875;28;20287;-79
2023/07/04 13:07:27;;;;;;;6.15;3.50;;;21.50;86.40;;;;;;5036957;28;20187;-80
2023/07/04 13:09:57;;;;;;;9.07;4.22;;;21.70;87.30;;;;;;5026690;28;20197;-79
2023/07/04 13:12:28;;;;;;;6.13;3.15;;;21.90;87.90;;;;;;5026189;28;20214;-80
2023/07/04 13:15:07;;;;;;;6.03;3.45;;;22.30;88.10;;;;;;5036017;28;20199;-80